createdAt,value
2019-01-15T00:00:50.375Z,4.60
2019-01-15T00:01:50.357Z,5.20
2019-01-15T00:02:50.379Z,5.30
2019-01-15T00:03:50.341Z,4.90
2019-01-15T00:04:50.321Z,5.00
2019-01-15T00:05:50.321Z,4.90
2019-01-15T00:06:50.304Z,5.20
2019-01-15T00:07:50.302Z,4.70
2019-01-15T00:08:50.381Z,5.30
2019-01-15T00:09:50.277Z,5.30
2019-01-15T00:10:50.267Z,5.40
2019-01-15T00:11:50.255Z,5.20
2019-01-15T00:12:50.239Z,5.30
2019-01-15T00:13:50.233Z,5.60
2019-01-15T00:14:50.347Z,5.70
2019-01-15T00:15:50.206Z,5.50
2019-01-15T00:16:50.208Z,6.00
2019-01-15T00:17:50.182Z,5.70
2019-01-15T00:18:50.175Z,5.80
2019-01-15T00:19:50.164Z,5.40
2019-01-15T00:20:50.167Z,5.10
2019-01-15T00:21:50.148Z,5.40
2019-01-15T00:23:00.306Z,6.20
2019-01-15T00:23:50.123Z,6.00
2019-01-15T00:24:50.122Z,5.70
2019-01-15T00:25:50.099Z,6.10
2019-01-15T00:26:50.111Z,6.20
2019-01-15T00:27:50.085Z,6.60
2019-01-15T00:28:50.066Z,6.10
2019-01-15T00:29:50.055Z,6.30
2019-01-15T00:30:50.048Z,6.10
2019-01-15T00:31:50.039Z,5.90
2019-01-15T00:32:50.069Z,6.10
2019-01-15T00:33:50.016Z,5.50
2019-01-15T00:34:50.010Z,5.80
2019-01-15T00:35:49.995Z,6.70
2019-01-15T00:36:49.980Z,6.30
2019-01-15T00:37:49.969Z,6.60
2019-01-15T00:38:50.009Z,6.80
2019-01-15T00:39:49.945Z,6.10
2019-01-15T00:43:02.230Z,6.40
2019-01-15T00:44:02.224Z,6.60
2019-01-15T00:45:02.184Z,7.20
2019-01-15T00:46:02.204Z,6.30
2019-01-15T00:47:02.161Z,7.30
2019-01-15T00:48:02.155Z,7.40
2019-01-15T00:49:02.155Z,7.00
2019-01-15T00:50:02.165Z,7.40
2019-01-15T00:51:02.121Z,6.80
2019-01-15T00:52:02.110Z,7.00
2019-01-15T00:53:02.113Z,7.20
2019-01-15T00:54:02.089Z,7.20
2019-01-15T00:55:02.076Z,6.40
2019-01-15T00:56:02.115Z,7.70
2019-01-15T00:57:02.058Z,8.20
2019-01-15T00:58:02.040Z,8.10
2019-01-15T00:59:02.038Z,7.70
2019-01-15T01:00:02.039Z,7.70
2019-01-15T01:01:02.015Z,8.20
2019-01-15T01:02:02.039Z,7.50
2019-01-15T01:03:01.993Z,7.60
2019-01-15T01:04:01.981Z,7.40
2019-01-15T01:05:01.969Z,7.80
2019-01-15T01:06:01.978Z,6.40
2019-01-15T01:07:01.949Z,8.10
2019-01-15T01:08:01.977Z,7.20
2019-01-15T01:09:01.927Z,7.90
2019-01-15T01:10:01.914Z,8.00
2019-01-15T01:11:01.915Z,7.80
2019-01-15T01:12:01.912Z,8.00
2019-01-15T01:13:09.629Z,7.60
2019-01-15T01:14:01.871Z,7.90
2019-01-15T01:15:01.864Z,7.90
2019-01-15T01:16:01.847Z,7.60
2019-01-15T01:17:01.837Z,8.20
2019-01-15T01:18:01.831Z,7.70
2019-01-15T01:19:01.853Z,7.10
2019-01-15T01:20:01.808Z,7.80
2019-01-15T01:21:01.804Z,8.50
2019-01-15T01:22:01.791Z,8.10
2019-01-15T01:23:01.773Z,7.50
2019-01-15T01:24:01.765Z,8.20
2019-01-15T01:25:01.788Z,7.40
2019-01-15T01:26:01.750Z,8.00
2019-01-15T01:27:01.736Z,8.50
2019-01-15T01:28:01.719Z,7.70
2019-01-15T01:29:01.711Z,8.20
2019-01-15T01:30:01.706Z,7.70
2019-01-15T01:31:01.727Z,7.30
2019-01-15T01:32:01.683Z,8.60
2019-01-15T01:33:01.753Z,7.70
2019-01-15T01:34:01.656Z,7.60
2019-01-15T01:35:01.651Z,7.80
2019-01-15T01:36:01.643Z,8.00
2019-01-15T01:37:01.669Z,7.20
2019-01-15T01:38:01.617Z,7.20
2019-01-15T01:39:01.615Z,8.00
2019-01-15T01:40:01.593Z,7.40
2019-01-15T01:41:01.585Z,8.10
2019-01-15T01:42:01.576Z,8.30
2019-01-15T01:43:01.582Z,8.50
2019-01-15T01:44:12.092Z,7.80
2019-01-15T01:45:01.541Z,8.00
2019-01-15T01:46:01.536Z,8.80
2019-01-15T01:47:01.525Z,7.60
2019-01-15T01:48:01.511Z,7.90
2019-01-15T01:49:01.636Z,7.80
2019-01-15T01:50:01.491Z,7.70
2019-01-15T01:51:01.480Z,7.40
2019-01-15T01:52:01.472Z,8.40
2019-01-15T01:53:01.457Z,8.00
2019-01-15T01:54:01.463Z,7.90
2019-01-15T01:55:01.479Z,8.50
2019-01-15T01:56:01.426Z,8.40
2019-01-15T01:57:01.422Z,7.50
2019-01-15T01:58:01.411Z,8.20
2019-01-15T01:59:01.395Z,8.50
2019-01-15T02:00:01.393Z,8.20
2019-01-15T02:01:01.399Z,8.50
2019-01-15T02:02:01.365Z,7.40
2019-01-15T02:03:01.348Z,7.40
2019-01-15T02:04:01.349Z,7.50
2019-01-15T02:05:01.335Z,8.40
2019-01-15T02:06:01.317Z,8.40
2019-01-15T02:07:01.357Z,8.10
2019-01-15T02:08:01.303Z,8.30
2019-01-15T02:09:01.299Z,8.80
2019-01-15T02:10:01.274Z,8.70
2019-01-15T02:11:01.271Z,8.50
2019-01-15T02:12:01.260Z,8.30
2019-01-15T02:13:01.415Z,8.00
2019-01-15T02:14:01.235Z,8.20
2019-01-15T02:15:11.152Z,8.00
2019-01-15T02:16:01.292Z,8.00
2019-01-15T02:17:01.204Z,7.70
2019-01-15T02:18:01.195Z,8.30
2019-01-15T02:19:01.215Z,7.80
2019-01-15T02:20:01.167Z,8.30
2019-01-15T02:21:01.160Z,7.90
2019-01-15T02:22:01.146Z,9.10
2019-01-15T02:23:01.150Z,8.10
2019-01-15T02:24:01.131Z,7.70
2019-01-15T02:25:01.146Z,8.30
2019-01-15T02:26:01.111Z,8.60
2019-01-15T02:27:01.098Z,9.00
2019-01-15T02:28:01.091Z,7.80
2019-01-15T02:29:01.084Z,8.50
2019-01-15T02:30:01.084Z,8.30
2019-01-15T02:31:01.227Z,8.20
2019-01-15T02:32:01.041Z,8.80
2019-01-15T02:33:01.034Z,8.70
2019-01-15T02:34:01.026Z,9.00
2019-01-15T02:35:01.011Z,8.70
2019-01-15T02:36:01.001Z,9.00
2019-01-15T02:37:01.129Z,8.90
2019-01-15T02:38:00.984Z,8.80
2019-01-15T02:39:01.019Z,9.90
2019-01-15T02:40:00.958Z,8.80
2019-01-15T02:41:00.954Z,8.50
2019-01-15T02:42:00.944Z,10.00
2019-01-15T02:43:00.969Z,8.80
2019-01-15T02:44:00.917Z,8.30
2019-01-15T02:45:00.905Z,8.70
2019-01-15T02:46:13.105Z,9.30
2019-01-15T02:47:00.885Z,9.60
2019-01-15T02:48:00.870Z,8.80
2019-01-15T02:49:00.898Z,8.70
2019-01-15T02:50:00.887Z,9.40
2019-01-15T02:51:00.846Z,8.30
2019-01-15T02:52:00.829Z,9.10
2019-01-15T02:53:00.824Z,9.30
2019-01-15T02:54:00.811Z,9.30
2019-01-15T02:55:00.820Z,7.70
2019-01-15T02:56:00.788Z,8.30
2019-01-15T02:57:00.780Z,8.30
2019-01-15T02:58:00.765Z,8.40
2019-01-15T02:59:00.761Z,8.50
2019-01-15T03:00:00.746Z,8.10
2019-01-15T03:01:00.764Z,8.90
2019-01-15T03:02:00.729Z,8.80
2019-01-15T03:03:00.719Z,9.80
2019-01-15T03:04:00.703Z,9.50
2019-01-15T03:05:00.694Z,9.90
2019-01-15T03:06:00.685Z,9.20
2019-01-15T03:07:00.718Z,9.40
2019-01-15T03:08:00.666Z,9.10
2019-01-15T03:09:00.652Z,9.10
2019-01-15T03:10:00.650Z,9.30
2019-01-15T03:11:00.626Z,8.80
2019-01-15T03:12:00.623Z,8.60
2019-01-15T03:13:00.648Z,9.00
2019-01-15T03:14:00.620Z,8.70
2019-01-15T03:15:00.594Z,9.40
2019-01-15T03:16:00.583Z,9.20
2019-01-15T03:17:10.734Z,8.80
2019-01-15T03:18:00.552Z,9.70
2019-01-15T03:19:00.587Z,9.50
2019-01-15T03:20:00.533Z,9.30
2019-01-15T03:21:00.530Z,8.70
2019-01-15T03:22:00.511Z,8.90
2019-01-15T03:23:00.500Z,10.00
2019-01-15T03:24:00.498Z,9.00
2019-01-15T03:25:00.526Z,8.60
2019-01-15T03:26:00.471Z,9.40
2019-01-15T03:27:00.460Z,9.40
2019-01-15T03:28:00.445Z,8.90
2019-01-15T03:29:00.441Z,9.30
2019-01-15T03:30:00.465Z,9.90
2019-01-15T03:31:00.469Z,9.30
2019-01-15T03:32:00.416Z,9.10
2019-01-15T03:33:00.402Z,9.50
2019-01-15T03:34:00.388Z,9.40
2019-01-15T03:35:00.450Z,9.00
2019-01-15T03:36:00.360Z,10.00
2019-01-15T03:37:00.390Z,9.90
2019-01-15T03:38:00.341Z,10.20
2019-01-15T03:39:00.328Z,9.10
2019-01-15T03:40:00.328Z,10.10
2019-01-15T03:41:00.309Z,10.40
2019-01-15T03:42:00.295Z,8.90
2019-01-15T03:43:03.973Z,9.40
2019-01-15T03:44:00.280Z,10.30
2019-01-15T03:45:00.332Z,9.20
2019-01-15T03:46:04.519Z,9.80
2019-01-15T03:47:00.246Z,10.20
2019-01-15T03:48:11.183Z,9.90
2019-01-15T03:49:00.226Z,10.60
2019-01-15T03:50:00.274Z,9.90
2019-01-15T03:51:00.202Z,9.80
2019-01-15T03:52:00.196Z,9.50
2019-01-15T03:53:00.194Z,10.10
2019-01-15T03:54:00.218Z,10.50
2019-01-15T03:55:00.260Z,9.90
2019-01-15T03:56:00.159Z,9.60
2019-01-15T03:57:00.148Z,10.30
2019-01-15T03:58:00.137Z,10.80
2019-01-15T03:59:00.136Z,9.10
2019-01-15T04:00:00.263Z,10.10
2019-01-15T04:01:00.096Z,9.70
2019-01-15T04:02:00.110Z,9.70
2019-01-15T04:03:00.079Z,10.20
2019-01-15T04:04:00.069Z,10.20
2019-01-15T04:05:00.063Z,10.30
2019-01-15T04:06:00.099Z,10.00
2019-01-15T04:07:00.045Z,10.90
2019-01-15T04:08:00.026Z,10.30
2019-01-15T04:09:00.011Z,10.40
2019-01-15T04:10:00.009Z,10.40
2019-01-15T04:10:59.993Z,10.60
2019-01-15T04:12:00.153Z,9.90
2019-01-15T04:12:59.974Z,10.80
2019-01-15T04:13:59.969Z,10.00
2019-01-15T04:14:59.954Z,10.80
2019-01-15T04:15:59.941Z,11.20
2019-01-15T04:16:59.929Z,11.10
2019-01-15T04:17:59.960Z,10.10
2019-01-15T04:19:10.225Z,10.50
2019-01-15T04:19:59.901Z,10.60
2019-01-15T04:20:59.887Z,10.60
2019-01-15T04:21:59.873Z,10.20
2019-01-15T04:22:59.860Z,10.40
2019-01-15T04:23:59.878Z,11.20
2019-01-15T04:24:59.854Z,10.60
2019-01-15T04:25:59.834Z,11.00
2019-01-15T04:26:59.831Z,11.80
2019-01-15T04:27:59.811Z,10.30
2019-01-15T04:28:59.798Z,10.70
2019-01-15T04:29:59.972Z,10.30
2019-01-15T04:30:59.783Z,10.20
2019-01-15T04:31:59.773Z,11.00
2019-01-15T04:32:59.754Z,10.90
2019-01-15T04:33:59.758Z,10.50
2019-01-15T04:34:59.741Z,10.60
2019-01-15T04:35:59.766Z,10.50
2019-01-15T04:36:59.718Z,11.40
2019-01-15T04:37:59.711Z,10.50
2019-01-15T04:38:59.699Z,10.50
2019-01-15T04:39:59.762Z,10.60
2019-01-15T04:40:59.672Z,11.00
2019-01-15T04:41:59.834Z,10.40
2019-01-15T04:42:59.647Z,11.40
2019-01-15T04:43:59.646Z,11.10
2019-01-15T04:44:59.632Z,9.70
2019-01-15T04:45:59.627Z,9.70
2019-01-15T04:46:59.609Z,9.80
2019-01-15T04:47:59.686Z,10.10
2019-01-15T04:48:59.590Z,11.10
2019-01-15T04:50:09.954Z,10.00
2019-01-15T04:50:59.570Z,11.10
2019-01-15T04:51:59.555Z,10.80
2019-01-15T04:52:59.547Z,10.20
2019-01-15T04:53:59.570Z,10.90
2019-01-15T04:54:59.523Z,10.30
2019-01-15T04:55:59.514Z,11.30
2019-01-15T04:56:59.512Z,11.60
2019-01-15T04:57:59.496Z,11.10
2019-01-15T04:58:59.481Z,10.70
2019-01-15T04:59:59.641Z,10.70
2019-01-15T05:00:59.462Z,10.20
2019-01-15T05:01:59.446Z,10.20
2019-01-15T05:02:59.436Z,10.10
2019-01-15T05:03:59.426Z,10.60
2019-01-15T05:04:59.418Z,9.90
2019-01-15T05:05:59.447Z,10.40
2019-01-15T05:06:59.399Z,10.00
2019-01-15T05:07:59.388Z,9.90
2019-01-15T05:08:59.381Z,11.10
2019-01-15T05:09:59.368Z,9.70
2019-01-15T05:10:59.353Z,10.30
2019-01-15T05:11:59.369Z,9.40
2019-01-15T05:12:59.334Z,9.50
2019-01-15T05:13:59.326Z,10.10
2019-01-15T05:14:59.310Z,9.30
2019-01-15T05:15:59.306Z,9.20
2019-01-15T05:16:59.295Z,10.20
2019-01-15T05:17:59.314Z,9.40
2019-01-15T05:18:59.276Z,9.70
2019-01-15T05:19:59.253Z,10.10
2019-01-15T05:21:09.913Z,10.20
2019-01-15T05:21:59.232Z,9.80
2019-01-15T05:22:59.227Z,9.10
2019-01-15T05:23:59.237Z,9.30
2019-01-15T05:24:59.206Z,9.20
2019-01-15T05:25:59.192Z,9.20
2019-01-15T05:26:59.191Z,10.10
2019-01-15T05:27:59.181Z,9.70
2019-01-15T05:28:59.160Z,9.20
2019-01-15T05:29:59.175Z,9.70
2019-01-15T05:30:59.154Z,9.80
2019-01-15T05:31:59.127Z,9.40
2019-01-15T05:32:59.132Z,10.00
2019-01-15T05:33:59.112Z,9.50
2019-01-15T05:34:59.098Z,10.00
2019-01-15T05:35:59.109Z,9.30
2019-01-15T05:36:59.085Z,9.10
2019-01-15T05:37:59.064Z,9.70
2019-01-15T05:38:59.070Z,9.10
2019-01-15T05:39:59.043Z,9.10
2019-01-15T05:40:59.042Z,9.50
2019-01-15T05:41:59.069Z,9.90
2019-01-15T05:42:59.016Z,9.50
2019-01-15T05:43:59.006Z,8.60
2019-01-15T05:44:58.991Z,9.80
2019-01-15T05:45:58.986Z,10.00
2019-01-15T05:46:58.980Z,9.60
2019-01-15T05:47:58.981Z,9.90
2019-01-15T05:48:58.951Z,10.80
2019-01-15T05:49:58.937Z,9.90
2019-01-15T05:50:58.933Z,9.90
2019-01-15T05:52:09.317Z,10.20
2019-01-15T05:52:58.909Z,11.40
2019-01-15T05:53:58.911Z,10.30
2019-01-15T05:54:58.885Z,10.50
2019-01-15T05:55:58.871Z,10.40
2019-01-15T05:56:58.863Z,11.00
2019-01-15T05:57:58.857Z,9.50
2019-01-15T05:58:58.852Z,10.70
2019-01-15T05:59:58.869Z,10.70
2019-01-15T06:00:58.825Z,10.70
2019-01-15T06:01:58.813Z,11.50
2019-01-15T06:02:58.798Z,10.20
2019-01-15T06:03:58.789Z,10.50
2019-01-15T06:04:58.781Z,9.50
2019-01-15T06:05:58.809Z,10.20
2019-01-15T06:06:58.758Z,8.90
2019-01-15T06:07:58.748Z,9.40
2019-01-15T06:08:58.739Z,9.70
2019-01-15T06:09:58.729Z,9.30
2019-01-15T06:10:58.722Z,9.50
2019-01-15T06:11:58.743Z,9.30
2019-01-15T06:12:58.757Z,8.90
2019-01-15T06:13:58.689Z,9.10
2019-01-15T06:14:58.671Z,10.20
2019-01-15T06:15:58.669Z,9.20
2019-01-15T06:16:58.649Z,9.60
2019-01-15T06:17:58.656Z,9.70
2019-01-15T06:18:58.630Z,10.30
2019-01-15T06:19:58.620Z,10.30
2019-01-15T06:20:58.607Z,10.20
2019-01-15T06:21:58.602Z,10.20
2019-01-15T06:23:08.751Z,11.20
2019-01-15T06:23:58.584Z,11.60
2019-01-15T06:24:58.567Z,11.50
2019-01-15T06:25:58.560Z,12.40
2019-01-15T06:26:58.550Z,12.40
2019-01-15T06:27:58.543Z,11.80
2019-01-15T06:29:06.283Z,11.40
2019-01-15T06:29:58.518Z,10.70
2019-01-15T06:30:58.515Z,10.60
2019-01-15T06:31:58.492Z,10.70
2019-01-15T06:32:58.481Z,10.60
2019-01-15T06:33:58.471Z,11.20
2019-01-15T06:34:58.652Z,9.60
2019-01-15T06:35:58.465Z,8.80
2019-01-15T06:36:58.442Z,9.70
2019-01-15T06:37:58.428Z,9.20
2019-01-15T06:38:58.427Z,8.70
2019-01-15T06:40:05.812Z,9.40
2019-01-15T06:41:05.397Z,9.00
2019-01-15T06:41:58.397Z,9.10
2019-01-15T06:42:58.378Z,9.60
2019-01-15T06:43:58.376Z,9.20
2019-01-15T06:44:58.355Z,10.40
2019-01-15T06:45:58.394Z,9.40
2019-01-15T06:46:58.383Z,9.00
2019-01-15T06:47:58.333Z,9.50
2019-01-15T06:48:58.351Z,9.50
2019-01-15T06:49:58.298Z,10.10
2019-01-15T06:50:58.293Z,9.50
2019-01-15T06:51:58.321Z,9.70
2019-01-15T06:52:58.274Z,9.70
2019-01-15T06:53:58.276Z,10.20
2019-01-15T06:54:58.260Z,8.70
2019-01-15T06:55:58.242Z,9.30
2019-01-15T06:56:58.234Z,10.10
2019-01-15T06:57:58.257Z,8.80
2019-01-15T06:59:05.707Z,9.90
2019-01-15T06:59:58.197Z,11.30
2019-01-15T07:00:58.185Z,9.10
2019-01-15T07:01:58.184Z,9.40
2019-01-15T07:02:58.183Z,11.00
2019-01-15T07:03:58.331Z,10.00
2019-01-15T07:04:58.153Z,10.20
2019-01-15T07:05:58.139Z,10.30
2019-01-15T07:06:58.124Z,10.90
2019-01-15T07:07:58.124Z,10.00
2019-01-15T07:08:58.104Z,10.80
2019-01-15T07:09:58.312Z,10.00
2019-01-15T07:10:58.114Z,9.50
2019-01-15T07:11:58.073Z,10.00
2019-01-15T07:12:58.062Z,10.60
2019-01-15T07:13:58.052Z,9.90
2019-01-15T07:14:58.050Z,10.60
2019-01-15T07:15:58.072Z,10.60
2019-01-15T07:16:58.026Z,9.90
2019-01-15T07:17:58.010Z,10.40
2019-01-15T07:18:58.060Z,10.00
2019-01-15T07:19:57.987Z,10.50
2019-01-15T07:20:57.979Z,10.40
2019-01-15T07:21:58.001Z,10.00
2019-01-15T07:22:57.952Z,9.70
2019-01-15T07:23:58.020Z,10.20
2019-01-15T07:24:57.945Z,9.60
2019-01-15T07:25:57.961Z,10.00
2019-01-15T07:26:57.908Z,10.40
2019-01-15T07:27:57.928Z,10.40
2019-01-15T07:28:57.889Z,10.60
2019-01-15T07:30:09.209Z,9.80
2019-01-15T07:30:57.877Z,10.40
2019-01-15T07:31:57.859Z,11.80
2019-01-15T07:32:57.901Z,10.10
2019-01-15T07:33:57.937Z,10.70
2019-01-15T07:34:57.826Z,10.90
2019-01-15T07:35:57.814Z,12.20
2019-01-15T07:36:57.816Z,15.40
2019-01-15T07:37:57.811Z,15.70
2019-01-15T07:38:57.785Z,16.10
2019-01-15T07:39:57.814Z,14.20
2019-01-15T07:40:57.767Z,12.70
2019-01-15T07:41:57.759Z,10.40
2019-01-15T07:42:57.743Z,12.10
2019-01-15T07:44:04.187Z,11.00
2019-01-15T07:44:58.826Z,10.40
2019-01-15T07:45:57.709Z,10.20
2019-01-15T07:46:57.699Z,9.60
2019-01-15T07:47:57.695Z,9.70
2019-01-15T07:48:57.680Z,10.20
2019-01-15T07:49:57.669Z,9.70
2019-01-15T07:50:57.774Z,10.30
2019-01-15T07:51:57.648Z,10.40
2019-01-15T07:52:57.638Z,10.00
2019-01-15T07:53:57.635Z,10.40
2019-01-15T07:54:57.612Z,10.60
2019-01-15T07:55:57.606Z,9.70
2019-01-15T07:56:57.825Z,11.10
2019-01-15T07:57:57.872Z,10.30
2019-01-15T07:58:57.660Z,10.70
2019-01-15T07:59:57.558Z,10.00
2019-01-15T08:01:07.992Z,9.70
2019-01-15T08:01:57.542Z,10.80
2019-01-15T08:02:57.574Z,9.30
2019-01-15T08:03:57.533Z,9.50
2019-01-15T08:04:57.511Z,9.30
2019-01-15T08:05:57.497Z,8.80
2019-01-15T08:06:57.498Z,8.70
2019-01-15T08:07:57.474Z,8.90
2019-01-15T08:08:57.517Z,8.10
2019-01-15T08:09:57.454Z,7.30
2019-01-15T08:10:57.445Z,8.20
2019-01-15T08:11:57.430Z,8.30
2019-01-15T08:12:57.427Z,9.60
2019-01-15T08:13:57.429Z,9.90
2019-01-15T08:14:57.441Z,9.30
2019-01-15T08:15:57.399Z,8.90
2019-01-15T08:16:57.382Z,9.10
2019-01-15T08:17:57.390Z,9.10
2019-01-15T08:18:57.362Z,8.70
2019-01-15T08:19:57.352Z,9.50
2019-01-15T08:20:57.426Z,9.40
2019-01-15T08:21:57.334Z,9.30
2019-01-15T08:22:57.321Z,10.80
2019-01-15T08:23:57.306Z,10.20
2019-01-15T08:24:57.431Z,8.00
2019-01-15T08:25:57.360Z,7.70
2019-01-15T08:26:57.355Z,8.70
2019-01-15T08:27:57.264Z,8.30
2019-01-15T08:28:57.264Z,9.00
2019-01-15T08:29:57.245Z,8.40
2019-01-15T08:30:57.227Z,8.70
2019-01-15T08:32:08.217Z,8.60
2019-01-15T08:32:57.212Z,9.40
2019-01-15T08:33:57.196Z,8.90
2019-01-15T08:34:57.192Z,8.90
2019-01-15T08:35:57.178Z,7.90
2019-01-15T08:36:57.166Z,8.10
2019-01-15T08:37:57.306Z,8.50
2019-01-15T08:38:57.147Z,9.00
2019-01-15T08:39:57.138Z,8.60
2019-01-15T08:40:57.134Z,7.70
2019-01-15T08:41:57.127Z,8.70
2019-01-15T08:42:57.107Z,7.80
2019-01-15T08:43:57.136Z,7.10
2019-01-15T08:44:57.080Z,7.20
2019-01-15T08:45:57.076Z,7.80
2019-01-15T08:46:57.080Z,8.30
2019-01-15T08:47:57.049Z,8.00
2019-01-15T08:48:57.064Z,8.40
2019-01-15T08:49:57.071Z,7.60
2019-01-15T08:50:57.018Z,8.30
2019-01-15T08:51:57.011Z,7.70
2019-01-15T08:52:57.001Z,7.40
2019-01-15T08:53:56.989Z,8.30
2019-01-15T08:54:56.976Z,7.50
2019-01-15T08:55:57.021Z,6.80
2019-01-15T08:56:56.963Z,7.40
2019-01-15T08:57:56.946Z,7.70
2019-01-15T08:58:56.934Z,7.80
2019-01-15T08:59:56.932Z,6.80
2019-01-15T09:00:56.914Z,7.80
2019-01-15T09:01:57.068Z,7.90
2019-01-15T09:03:07.555Z,7.90
2019-01-15T09:03:56.883Z,8.20
2019-01-15T09:04:56.869Z,7.70
2019-01-15T09:05:56.862Z,7.60
2019-01-15T09:06:56.850Z,8.20
2019-01-15T09:07:56.885Z,8.40
2019-01-15T09:08:56.833Z,8.20
2019-01-15T09:09:56.821Z,6.80
2019-01-15T09:10:56.804Z,6.50
2019-01-15T09:11:56.796Z,7.90
2019-01-15T09:12:56.790Z,8.50
2019-01-15T09:13:56.815Z,7.90
2019-01-15T09:14:56.899Z,7.90
2019-01-15T09:15:56.753Z,7.50
2019-01-15T09:16:56.767Z,8.60
2019-01-15T09:17:56.738Z,7.90
2019-01-15T09:18:56.716Z,7.60
2019-01-15T09:19:56.748Z,7.40
2019-01-15T09:20:56.708Z,6.90
2019-01-15T09:21:56.689Z,8.40
2019-01-15T09:22:56.687Z,7.10
2019-01-15T09:23:56.664Z,7.10
2019-01-15T09:24:56.661Z,6.50
2019-01-15T09:25:56.675Z,6.60
2019-01-15T09:26:56.636Z,7.80
2019-01-15T09:27:56.628Z,7.20
2019-01-15T09:28:56.622Z,6.70
2019-01-15T09:29:56.605Z,7.60
2019-01-15T09:30:56.613Z,7.20
2019-01-15T09:31:56.756Z,6.80
2019-01-15T09:32:56.574Z,6.80
2019-01-15T09:34:06.818Z,7.60
2019-01-15T09:34:56.547Z,7.40
2019-01-15T09:35:56.543Z,6.50
2019-01-15T09:36:56.526Z,7.10
2019-01-15T09:37:56.560Z,7.30
2019-01-15T09:38:56.509Z,8.20
2019-01-15T09:39:56.492Z,8.10
2019-01-15T09:40:56.481Z,7.70
2019-01-15T09:41:56.497Z,7.90
2019-01-15T09:42:56.468Z,7.60
2019-01-15T09:43:56.496Z,8.40
2019-01-15T09:44:56.441Z,7.60
2019-01-15T09:45:56.438Z,7.50
2019-01-15T09:46:56.424Z,7.60
2019-01-15T09:47:56.450Z,7.40
2019-01-15T09:48:56.400Z,7.60
2019-01-15T09:49:56.628Z,7.80
2019-01-15T09:50:56.381Z,7.60
2019-01-15T09:51:56.367Z,8.00
2019-01-15T09:52:56.361Z,6.50
2019-01-15T09:53:56.352Z,6.90
2019-01-15T09:54:56.353Z,6.90
2019-01-15T09:55:56.376Z,6.80
2019-01-15T09:56:56.314Z,6.50
2019-01-15T09:57:56.305Z,7.20
2019-01-15T09:58:56.291Z,6.30
2019-01-15T09:59:56.289Z,5.90
2019-01-15T10:00:56.273Z,6.00
2019-01-15T10:01:56.304Z,6.20
2019-01-15T10:02:56.250Z,6.30
2019-01-15T10:03:56.241Z,6.80
2019-01-15T10:05:07.963Z,6.70
2019-01-15T10:05:56.219Z,6.60
2019-01-15T10:06:56.205Z,6.70
2019-01-15T10:07:56.221Z,7.60
2019-01-15T10:08:56.192Z,7.40
2019-01-15T10:09:56.260Z,7.40
2019-01-15T10:10:56.163Z,8.10
2019-01-15T10:11:56.161Z,7.40
2019-01-15T10:12:56.142Z,6.90
2019-01-15T10:13:56.184Z,7.00
2019-01-15T10:14:56.127Z,6.60
2019-01-15T10:15:56.116Z,7.30
2019-01-15T10:16:56.111Z,7.60
2019-01-15T10:17:56.090Z,7.90
2019-01-15T10:18:56.086Z,7.70
2019-01-15T10:19:56.106Z,7.20
2019-01-15T10:20:56.070Z,7.40
2019-01-15T10:21:56.059Z,7.50
2019-01-15T10:22:56.040Z,7.40
2019-01-15T10:23:56.033Z,7.10
2019-01-15T10:24:56.023Z,8.40
2019-01-15T10:25:56.183Z,9.00
2019-01-15T10:26:56.016Z,9.50
2019-01-15T10:27:55.983Z,8.60
2019-01-15T10:28:55.978Z,8.60
2019-01-15T10:29:59.309Z,8.60
2019-01-15T10:30:55.957Z,10.10
2019-01-15T10:31:55.985Z,9.00
2019-01-15T10:32:55.929Z,10.10
2019-01-15T10:33:55.924Z,10.10
2019-01-15T10:34:55.910Z,9.90
2019-01-15T10:36:06.482Z,8.80
2019-01-15T10:36:55.886Z,9.40
2019-01-15T10:37:55.909Z,8.20
2019-01-15T10:38:55.865Z,8.60
2019-01-15T10:39:55.862Z,8.20
2019-01-15T10:40:55.855Z,8.00
2019-01-15T10:41:55.837Z,6.90
2019-01-15T10:42:55.828Z,7.40
2019-01-15T10:43:55.860Z,8.10
2019-01-15T10:44:55.801Z,6.90
2019-01-15T10:45:55.794Z,7.10
2019-01-15T10:46:55.779Z,6.50
2019-01-15T10:47:55.782Z,6.70
2019-01-15T10:48:55.762Z,8.60
2019-01-15T10:49:55.788Z,7.40
2019-01-15T10:50:55.742Z,7.90
2019-01-15T10:51:55.729Z,7.90
2019-01-15T10:52:55.717Z,7.60
2019-01-15T10:53:55.702Z,6.20
2019-01-15T10:54:55.705Z,6.30
2019-01-15T10:56:02.955Z,6.80
2019-01-15T10:56:55.671Z,7.40
2019-01-15T10:57:55.665Z,6.20
2019-01-15T10:58:55.657Z,6.40
2019-01-15T10:59:55.640Z,6.80
2019-01-15T11:00:55.635Z,6.80
2019-01-15T11:02:02.955Z,6.70
2019-01-15T11:02:55.623Z,6.50
2019-01-15T11:03:55.596Z,6.50
2019-01-15T11:04:55.593Z,7.00
2019-01-15T11:05:55.582Z,6.40
2019-01-15T11:06:55.596Z,6.70
2019-01-15T11:07:55.751Z,6.40
2019-01-15T11:08:55.550Z,6.40
2019-01-15T11:09:55.540Z,6.50
2019-01-15T11:10:55.545Z,6.20
2019-01-15T11:11:55.525Z,6.50
2019-01-15T11:12:55.519Z,7.00
2019-01-15T11:13:55.536Z,7.00
2019-01-15T11:14:56.181Z,6.40
2019-01-15T11:15:55.484Z,6.00
2019-01-15T11:16:55.500Z,6.50
2019-01-15T11:17:55.555Z,6.70
2019-01-15T11:18:55.450Z,6.00
2019-01-15T11:19:55.447Z,6.90
2019-01-15T11:20:55.421Z,6.10
2019-01-15T11:21:55.408Z,6.60
2019-01-15T11:22:55.407Z,6.50
2019-01-15T11:23:55.432Z,6.30
2019-01-15T11:24:55.401Z,6.30
2019-01-15T11:25:55.446Z,6.40
2019-01-15T11:26:55.379Z,6.20
2019-01-15T11:27:55.389Z,5.80
2019-01-15T11:28:55.340Z,6.20
2019-01-15T11:29:55.396Z,5.70
2019-01-15T11:30:55.329Z,6.60
2019-01-15T11:31:55.322Z,6.40
2019-01-15T11:33:05.498Z,6.10
2019-01-15T11:33:55.280Z,6.30
2019-01-15T11:34:55.285Z,7.50
2019-01-15T11:35:55.259Z,8.80
2019-01-15T11:36:55.248Z,6.90
2019-01-15T11:37:55.272Z,6.70
2019-01-15T11:38:55.229Z,6.90
2019-01-15T11:39:55.217Z,8.10
2019-01-15T11:40:55.204Z,7.50
2019-01-15T11:41:55.198Z,7.10
2019-01-15T11:42:55.182Z,6.90
2019-01-15T11:43:55.214Z,7.20
2019-01-15T11:44:55.166Z,6.10
2019-01-15T11:45:55.148Z,7.00
2019-01-15T11:46:55.138Z,6.90
2019-01-15T11:47:55.135Z,6.80
2019-01-15T11:48:55.125Z,7.30
2019-01-15T11:49:55.154Z,6.60
2019-01-15T11:51:02.093Z,6.70
2019-01-15T11:51:55.094Z,6.90
2019-01-15T11:52:55.080Z,6.40
2019-01-15T11:53:55.092Z,7.20
2019-01-15T11:54:55.069Z,6.70
2019-01-15T11:55:55.220Z,6.60
2019-01-15T11:56:55.039Z,6.20
2019-01-15T11:57:55.051Z,6.60
2019-01-15T11:58:55.025Z,7.00
2019-01-15T11:59:55.016Z,6.50
2019-01-15T12:00:55.019Z,6.70
2019-01-15T12:01:55.022Z,6.60
2019-01-15T12:02:54.997Z,7.60
2019-01-15T12:03:54.985Z,7.60
2019-01-15T12:04:55.041Z,7.20
2019-01-15T12:05:54.943Z,7.00
2019-01-15T12:06:54.934Z,8.00
2019-01-15T12:07:55.183Z,7.30
2019-01-15T12:08:54.915Z,7.60
2019-01-15T12:09:54.898Z,8.10
2019-01-15T12:10:54.915Z,8.10
2019-01-15T12:11:54.890Z,7.50
2019-01-15T12:12:54.865Z,7.60
2019-01-15T12:13:54.898Z,8.60
2019-01-15T12:14:54.843Z,8.40
2019-01-15T12:15:54.840Z,8.60
2019-01-15T12:16:54.874Z,8.90
2019-01-15T12:17:54.814Z,8.80
2019-01-15T12:18:54.816Z,8.60
2019-01-15T12:19:54.975Z,7.80
2019-01-15T12:20:54.786Z,8.90
2019-01-15T12:22:04.869Z,7.40
2019-01-15T12:22:54.787Z,8.90
2019-01-15T12:23:54.750Z,7.80
2019-01-15T12:24:54.741Z,8.20
2019-01-15T12:25:54.772Z,9.00
2019-01-15T12:26:54.728Z,8.40
2019-01-15T12:27:54.736Z,8.30
2019-01-15T12:28:54.721Z,8.50
2019-01-15T12:29:54.695Z,8.90
2019-01-15T12:30:54.694Z,10.70
2019-01-15T12:31:54.695Z,8.30
2019-01-15T12:32:54.664Z,8.90
2019-01-15T12:33:54.646Z,13.00
2019-01-15T12:34:54.647Z,10.00
2019-01-15T12:35:54.646Z,9.40
2019-01-15T12:36:54.623Z,8.70
2019-01-15T12:37:54.652Z,8.50
2019-01-15T12:38:54.587Z,9.20
2019-01-15T12:39:54.579Z,9.60
2019-01-15T12:40:54.572Z,7.70
2019-01-15T12:41:54.569Z,8.50
2019-01-15T12:42:54.566Z,8.10
2019-01-15T12:43:54.596Z,7.60
2019-01-15T12:44:54.557Z,8.40
2019-01-15T12:45:54.520Z,8.30
2019-01-15T12:46:54.517Z,8.30
2019-01-15T12:47:54.496Z,8.10
2019-01-15T12:48:54.493Z,8.50
2019-01-15T12:49:55.145Z,7.50
2019-01-15T12:50:54.478Z,7.80
2019-01-15T12:51:54.482Z,9.00
2019-01-15T12:53:04.553Z,8.00
2019-01-15T12:53:54.434Z,8.50
2019-01-15T12:54:54.417Z,9.10
2019-01-15T12:55:54.449Z,7.50
2019-01-15T12:56:54.395Z,8.80
2019-01-15T12:57:54.385Z,7.50
2019-01-15T12:58:54.377Z,7.90
2019-01-15T12:59:54.365Z,7.20
2019-01-15T13:00:54.364Z,7.40
2019-01-15T13:01:54.384Z,7.60
2019-01-15T13:02:54.337Z,8.00
2019-01-15T13:03:54.328Z,7.90
2019-01-15T13:04:54.317Z,7.50
2019-01-15T13:05:54.308Z,6.30
2019-01-15T13:06:54.293Z,7.90
2019-01-15T13:07:54.315Z,6.90
2019-01-15T13:08:54.278Z,7.60
2019-01-15T13:09:54.261Z,7.80
2019-01-15T13:10:54.256Z,7.60
2019-01-15T13:11:54.240Z,7.20
2019-01-15T13:12:54.227Z,7.50
2019-01-15T13:13:54.390Z,7.70
2019-01-15T13:14:54.210Z,7.10